sensor_id;sensor_type;location;lat;lon;timestamp;pressure;altitude;pressure_sealevel;temperature;humidity
75852;BME280;64500;52.632;20.656;2023-02-21T00:01:08;98990.95;;;6.84;81.42
75852;BME280;64500;52.632;20.656;2023-02-21T00:03:54;98983.41;;;6.84;81.38
75852;BME280;64500;52.632;20.656;2023-02-21T00:06:43;98988.67;;;6.84;81.43
75852;BME280;64500;52.632;20.656;2023-02-21T00:09:29;98989.41;;;6.83;81.33
75852;BME280;64500;52.632;20.656;2023-02-21T00:12:15;98984.04;;;6.81;81.21
75852;BME280;64500;52.632;20.656;2023-02-21T00:15:01;98984.94;;;6.80;81.27
75852;BME280;64500;52.632;20.656;2023-02-21T00:17:47;98984.98;;;6.79;81.37
75852;BME280;64500;52.632;20.656;2023-02-21T00:20:33;98985.36;;;6.79;81.30
75852;BME280;64500;52.632;20.656;2023-02-21T00:23:19;98981.67;;;6.78;81.40
75852;BME280;64500;52.632;20.656;2023-02-21T00:26:05;98986.96;;;6.77;81.36
75852;BME280;64500;52.632;20.656;2023-02-21T00:28:51;98976.81;;;6.76;81.34
75852;BME280;64500;52.632;20.656;2023-02-21T00:31:37;98980.86;;;6.76;81.29
75852;BME280;64500;52.632;20.656;2023-02-21T00:34:23;98974.18;;;6.76;81.41
75852;BME280;64500;52.632;20.656;2023-02-21T00:37:10;98970.70;;;6.75;81.49
75852;BME280;64500;52.632;20.656;2023-02-21T00:39:56;98966.48;;;6.75;81.37
75852;BME280;64500;52.632;20.656;2023-02-21T00:42:42;98961.40;;;6.75;81.40
75852;BME280;64500;52.632;20.656;2023-02-21T00:45:29;98963.87;;;6.75;81.53
75852;BME280;64500;52.632;20.656;2023-02-21T00:48:20;98966.67;;;6.75;81.56
75852;BME280;64500;52.632;20.656;2023-02-21T00:51:07;98971.10;;;6.74;81.37
75852;BME280;64500;52.632;20.656;2023-02-21T00:53:53;98976.02;;;6.74;81.45
75852;BME280;64500;52.632;20.656;2023-02-21T00:56:39;98975.27;;;6.75;81.46
75852;BME280;64500;52.632;20.656;2023-02-21T00:59:25;98976.31;;;6.75;81.47
75852;BME280;64500;52.632;20.656;2023-02-21T01:02:11;98974.91;;;6.75;81.40
75852;BME280;64500;52.632;20.656;2023-02-21T01:04:57;98972.27;;;6.75;81.40
75852;BME280;64500;52.632;20.656;2023-02-21T01:07:43;98972.61;;;6.76;81.47
75852;BME280;64500;52.632;20.656;2023-02-21T01:10:29;98969.27;;;6.76;81.64
75852;BME280;64500;52.632;20.656;2023-02-21T01:13:15;98972.61;;;6.76;81.54
75852;BME280;64500;52.632;20.656;2023-02-21T01:16:01;98976.10;;;6.76;81.56
75852;BME280;64500;52.632;20.656;2023-02-21T01:18:48;98970.67;;;6.76;81.63
75852;BME280;64500;52.632;20.656;2023-02-21T01:21:33;98971.04;;;6.75;81.50
75852;BME280;64500;52.632;20.656;2023-02-21T01:24:20;98979.64;;;6.76;81.64
75852;BME280;64500;52.632;20.656;2023-02-21T01:27:06;98985.77;;;6.76;81.65
75852;BME280;64500;52.632;20.656;2023-02-21T01:29:52;98976.84;;;6.75;81.62
75852;BME280;64500;52.632;20.656;2023-02-21T01:32:38;98976.48;;;6.76;81.63
75852;BME280;64500;52.632;20.656;2023-02-21T01:35:23;98980.35;;;6.75;81.45
75852;BME280;64500;52.632;20.656;2023-02-21T01:38:09;98973.50;;;6.76;81.52
75852;BME280;64500;52.632;20.656;2023-02-21T01:40:55;98975.23;;;6.76;81.63
75852;BME280;64500;52.632;20.656;2023-02-21T01:44:00;98970.52;;;6.75;81.58
75852;BME280;64500;52.632;20.656;2023-02-21T01:46:46;98970.91;;;6.74;81.70
75852;BME280;64500;52.632;20.656;2023-02-21T01:49:34;98972.00;;;6.73;81.52
75852;BME280;64500;52.632;20.656;2023-02-21T01:52:22;98973.05;;;6.73;81.52
75852;BME280;64500;52.632;20.656;2023-02-21T01:55:09;98978.34;;;6.72;81.83
75852;BME280;64500;52.632;20.656;2023-02-21T01:57:56;98975.88;;;6.73;81.41
75852;BME280;64500;52.632;20.656;2023-02-21T02:00:43;98977.29;;;6.73;81.60
75852;BME280;64500;52.632;20.656;2023-02-21T02:03:30;98976.23;;;6.73;81.62
75852;BME280;64500;52.632;20.656;2023-02-21T02:06:16;98969.21;;;6.72;81.45
75852;BME280;64500;52.632;20.656;2023-02-21T02:09:18;98965.91;;;6.71;81.53
75852;BME280;64500;52.632;20.656;2023-02-21T02:24:15;98967.01;;;6.70;81.49
75852;BME280;64500;52.632;20.656;2023-02-21T02:29:43;98973.02;;;6.68;81.41
75852;BME280;64500;52.632;20.656;2023-02-21T02:36:04;98969.25;;;6.66;81.31
75852;BME280;64500;52.632;20.656;2023-02-21T02:38:37;98973.16;;;6.64;81.20
75852;BME280;64500;52.632;20.656;2023-02-21T02:41:20;98969.30;;;6.64;81.19
75852;BME280;64500;52.632;20.656;2023-02-21T02:43:54;98970.34;;;6.64;81.09
75852;BME280;64500;52.632;20.656;2023-02-21T02:46:30;98963.67;;;6.64;81.14
75852;BME280;64500;52.632;20.656;2023-02-21T02:48:59;98967.71;;;6.64;81.16
75852;BME280;64500;52.632;20.656;2023-02-21T02:51:27;98970.75;;;6.62;81.14
75852;BME280;64500;52.632;20.656;2023-02-21T02:53:55;98971.15;;;6.60;81.20
75852;BME280;64500;52.632;20.656;2023-02-21T02:56:23;98966.10;;;6.60;81.01
75852;BME280;64500;52.632;20.656;2023-02-21T02:58:56;98954.50;;;6.60;81.03
75852;BME280;64500;52.632;20.656;2023-02-21T03:07:27;98939.62;;;6.58;80.99
75852;BME280;64500;52.632;20.656;2023-02-21T03:10:03;98939.95;;;6.59;81.02
75852;BME280;64500;52.632;20.656;2023-02-21T03:15:23;98937.39;;;6.57;80.83
75852;BME280;64500;52.632;20.656;2023-02-21T03:18:29;98940.89;;;6.57;80.87
75852;BME280;64500;52.632;20.656;2023-02-21T03:21:00;98946.14;;;6.58;80.75
75852;BME280;64500;52.632;20.656;2023-02-21T03:23:30;98953.73;;;6.56;80.62
75852;BME280;64500;52.632;20.656;2023-02-21T03:26:03;98952.51;;;6.57;80.56
75852;BME280;64500;52.632;20.656;2023-02-21T03:28:32;98954.80;;;6.56;80.49
75852;BME280;64500;52.632;20.656;2023-02-21T03:31:01;98957.95;;;6.56;80.50
75852;BME280;64500;52.632;20.656;2023-02-21T03:33:30;98956.02;;;6.56;80.59
75852;BME280;64500;52.632;20.656;2023-02-21T03:35:59;98951.27;;;6.56;80.44
75852;BME280;64500;52.632;20.656;2023-02-21T03:38:30;98961.14;;;6.55;80.49
75852;BME280;64500;52.632;20.656;2023-02-21T03:40:57;98963.04;;;6.56;80.39
75852;BME280;64500;52.632;20.656;2023-02-21T03:43:24;98973.57;;;6.56;80.31
75852;BME280;64500;52.632;20.656;2023-02-21T03:45:51;98961.99;;;6.56;80.39
75852;BME280;64500;52.632;20.656;2023-02-21T03:48:18;98960.25;;;6.56;80.29
75852;BME280;64500;52.632;20.656;2023-02-21T03:50:45;98966.40;;;6.55;80.38
75852;BME280;64500;52.632;20.656;2023-02-21T03:53:12;98962.55;;;6.55;80.20
75852;BME280;64500;52.632;20.656;2023-02-21T03:55:39;98952.04;;;6.55;80.10
75852;BME280;64500;52.632;20.656;2023-02-21T03:58:06;98956.60;;;6.54;80.10
75852;BME280;64500;52.632;20.656;2023-02-21T04:00:33;98947.46;;;6.54;80.23
75852;BME280;64500;52.632;20.656;2023-02-21T04:03:00;98945.55;;;6.54;80.15
75852;BME280;64500;52.632;20.656;2023-02-21T04:05:28;98939.23;;;6.54;80.24
75852;BME280;64500;52.632;20.656;2023-02-21T04:07:55;98949.05;;;6.54;80.13
75852;BME280;64500;52.632;20.656;2023-02-21T04:10:22;98945.05;;;6.53;80.17
75852;BME280;64500;52.632;20.656;2023-02-21T04:12:49;98955.39;;;6.53;80.01
75852;BME280;64500;52.632;20.656;2023-02-21T04:15:16;98955.42;;;6.53;79.89
75852;BME280;64500;52.632;20.656;2023-02-21T04:17:43;98961.54;;;6.53;79.91
75852;BME280;64500;52.632;20.656;2023-02-21T04:20:10;98955.41;;;6.53;80.02
75852;BME280;64500;52.632;20.656;2023-02-21T04:22:37;98964.19;;;6.53;79.98
75852;BME280;64500;52.632;20.656;2023-02-21T04:25:07;98962.59;;;6.53;79.95
75852;BME280;64500;52.632;20.656;2023-02-21T04:27:34;98972.08;;;6.53;79.93
75852;BME280;64500;52.632;20.656;2023-02-21T04:30:01;98964.19;;;6.53;79.91
75852;BME280;64500;52.632;20.656;2023-02-21T04:32:28;98971.23;;;6.53;79.87
75852;BME280;64500;52.632;20.656;2023-02-21T04:34:55;98978.64;;;6.52;79.89
75852;BME280;64500;52.632;20.656;2023-02-21T04:37:22;98977.39;;;6.51;79.76
75852;BME280;64500;52.632;20.656;2023-02-21T04:39:50;98980.73;;;6.52;79.77
75852;BME280;64500;52.632;20.656;2023-02-21T04:42:17;98982.52;;;6.51;79.79
75852;BME280;64500;52.632;20.656;2023-02-21T04:44:44;98980.95;;;6.50;79.81
75852;BME280;64500;52.632;20.656;2023-02-21T04:47:11;98980.07;;;6.50;79.82
75852;BME280;64500;52.632;20.656;2023-02-21T04:49:38;98972.69;;;6.50;79.82
75852;BME280;64500;52.632;20.656;2023-02-21T04:52:05;98974.80;;;6.50;79.69
75852;BME280;64500;52.632;20.656;2023-02-21T04:54:32;98967.98;;;6.50;79.72
75852;BME280;64500;52.632;20.656;2023-02-21T04:57:00;98969.91;;;6.49;79.77
75852;BME280;64500;52.632;20.656;2023-02-21T04:59:27;98971.16;;;6.49;79.75
75852;BME280;64500;52.632;20.656;2023-02-21T05:01:54;98973.61;;;6.49;79.62
75852;BME280;64500;52.632;20.656;2023-02-21T05:04:21;98975.92;;;6.48;79.50
75852;BME280;64500;52.632;20.656;2023-02-21T05:06:47;98972.93;;;6.48;79.61
75852;BME280;64500;52.632;20.656;2023-02-21T05:09:14;98974.72;;;6.48;79.69
75852;BME280;64500;52.632;20.656;2023-02-21T05:11:41;98969.80;;;6.47;79.60
75852;BME280;64500;52.632;20.656;2023-02-21T05:14:08;98973.65;;;6.48;79.69
75852;BME280;64500;52.632;20.656;2023-02-21T05:16:36;98975.77;;;6.47;79.57
75852;BME280;64500;52.632;20.656;2023-02-21T05:19:03;98980.87;;;6.47;79.63
75852;BME280;64500;52.632;20.656;2023-02-21T05:21:33;98975.23;;;6.47;79.55
75852;BME280;64500;52.632;20.656;2023-02-21T05:24:04;98978.95;;;6.47;79.64
75852;BME280;64500;52.632;20.656;2023-02-21T05:26:34;98978.79;;;6.47;79.63
75852;BME280;64500;52.632;20.656;2023-02-21T05:29:03;98980.37;;;6.46;79.50
75852;BME280;64500;52.632;20.656;2023-02-21T05:31:31;98984.42;;;6.45;79.43
75852;BME280;64500;52.632;20.656;2023-02-21T05:33:58;98988.49;;;6.44;79.50
75852;BME280;64500;52.632;20.656;2023-02-21T05:36:25;98990.59;;;6.45;79.40
75852;BME280;64500;52.632;20.656;2023-02-21T05:38:54;98990.42;;;6.44;79.43
75852;BME280;64500;52.632;20.656;2023-02-21T05:41:22;98984.64;;;6.44;79.47
75852;BME280;64500;52.632;20.656;2023-02-21T05:43:50;98982.71;;;6.44;79.42
75852;BME280;64500;52.632;20.656;2023-02-21T05:46:23;98989.02;;;6.44;79.43
75852;BME280;64500;52.632;20.656;2023-02-21T05:48:51;98988.70;;;6.43;79.38
75852;BME280;64500;52.632;20.656;2023-02-21T05:51:18;98992.04;;;6.42;79.26
75852;BME280;64500;52.632;20.656;2023-02-21T05:53:46;98992.23;;;6.42;79.36
75852;BME280;64500;52.632;20.656;2023-02-21T05:56:15;98989.09;;;6.42;79.35
75852;BME280;64500;52.632;20.656;2023-02-21T05:58:43;98991.71;;;6.42;79.39
75852;BME280;64500;52.632;20.656;2023-02-21T06:01:10;98993.29;;;6.42;79.34
75852;BME280;64500;52.632;20.656;2023-02-21T06:03:38;98997.84;;;6.42;79.30
75852;BME280;64500;52.632;20.656;2023-02-21T06:06:05;98994.00;;;6.42;79.44
75852;BME280;64500;52.632;20.656;2023-02-21T06:08:41;98990.31;;;6.42;79.34
75852;BME280;64500;52.632;20.656;2023-02-21T06:11:08;98999.26;;;6.42;79.38
75852;BME280;64500;52.632;20.656;2023-02-21T06:13:35;98996.13;;;6.41;79.22
75852;BME280;64500;52.632;20.656;2023-02-21T06:16:03;99006.13;;;6.41;79.35
75852;BME280;64500;52.632;20.656;2023-02-21T06:18:30;99011.02;;;6.42;79.47
75852;BME280;64500;52.632;20.656;2023-02-21T06:20:57;99016.63;;;6.42;79.35
75852;BME280;64500;52.632;20.656;2023-02-21T06:23:25;99020.52;;;6.42;79.24
75852;BME280;64500;52.632;20.656;2023-02-21T06:25:52;99027.34;;;6.42;79.15
75852;BME280;64500;52.632;20.656;2023-02-21T06:28:20;99034.04;;;6.41;79.07
75852;BME280;64500;52.632;20.656;2023-02-21T06:30:47;99029.98;;;6.42;79.14
75852;BME280;64500;52.632;20.656;2023-02-21T06:33:14;99036.80;;;6.42;79.14
75852;BME280;64500;52.632;20.656;2023-02-21T06:35:41;99041.37;;;6.42;79.23
75852;BME280;64500;52.632;20.656;2023-02-21T06:38:08;99049.61;;;6.42;79.16
75852;BME280;64500;52.632;20.656;2023-02-21T06:40:35;99050.52;;;6.42;79.04
75852;BME280;64500;52.632;20.656;2023-02-21T06:43:02;99051.38;;;6.42;79.04
75852;BME280;64500;52.632;20.656;2023-02-21T06:45:29;99056.15;;;6.41;78.88
75852;BME280;64500;52.632;20.656;2023-02-21T06:47:56;99067.02;;;6.41;79.02
75852;BME280;64500;52.632;20.656;2023-02-21T06:50:23;99072.80;;;6.42;79.31
75852;BME280;64500;52.632;20.656;2023-02-21T06:52:50;99073.65;;;6.43;79.15
75852;BME280;64500;52.632;20.656;2023-02-21T06:55:22;99080.14;;;6.43;79.14
75852;BME280;64500;52.632;20.656;2023-02-21T06:57:49;99079.45;;;6.43;79.03
75852;BME280;64500;52.632;20.656;2023-02-21T07:00:17;99083.48;;;6.43;79.21
75852;BME280;64500;52.632;20.656;2023-02-21T07:02:44;99082.06;;;6.43;79.09
75852;BME280;64500;52.632;20.656;2023-02-21T07:05:12;99088.91;;;6.43;79.08
75852;BME280;64500;52.632;20.656;2023-02-21T07:07:39;99091.20;;;6.43;79.10
75852;BME280;64500;52.632;20.656;2023-02-21T07:10:07;99097.87;;;6.43;79.01
75852;BME280;64500;52.632;20.656;2023-02-21T07:12:36;99104.73;;;6.43;78.95
75852;BME280;64500;52.632;20.656;2023-02-21T07:15:04;99105.27;;;6.42;78.94
75852;BME280;64500;52.632;20.656;2023-02-21T07:17:32;99109.80;;;6.43;78.92
75852;BME280;64500;52.632;20.656;2023-02-21T07:19:59;99114.56;;;6.42;78.92
75852;BME280;64500;52.632;20.656;2023-02-21T07:22:26;99111.56;;;6.43;78.96
75852;BME280;64500;52.632;20.656;2023-02-21T07:24:57;99117.00;;;6.43;79.00
75852;BME280;64500;52.632;20.656;2023-02-21T07:27:24;99133.83;;;6.44;78.95
75852;BME280;64500;52.632;20.656;2023-02-21T07:29:51;99135.92;;;6.45;79.10
75852;BME280;64500;52.632;20.656;2023-02-21T07:32:18;99146.98;;;6.45;78.98
75852;BME280;64500;52.632;20.656;2023-02-21T07:34:45;99150.45;;;6.46;78.93
75852;BME280;64500;52.632;20.656;2023-02-21T07:37:13;99150.81;;;6.46;78.95
75852;BME280;64500;52.632;20.656;2023-02-21T07:39:40;99158.38;;;6.45;79.01
75852;BME280;64500;52.632;20.656;2023-02-21T07:42:07;99169.97;;;6.45;79.00
75852;BME280;64500;52.632;20.656;2023-02-21T07:44:34;99168.02;;;6.45;78.95
75852;BME280;64500;52.632;20.656;2023-02-21T07:47:02;99170.81;;;6.46;78.97
75852;BME280;64500;52.632;20.656;2023-02-21T07:49:29;99173.14;;;6.44;78.91
75852;BME280;64500;52.632;20.656;2023-02-21T07:51:56;99177.17;;;6.45;78.74
75852;BME280;64500;52.632;20.656;2023-02-21T07:54:23;99181.92;;;6.44;79.00
75852;BME280;64500;52.632;20.656;2023-02-21T07:56:50;99191.76;;;6.44;78.96
75852;BME280;64500;52.632;20.656;2023-02-21T07:59:18;99195.46;;;6.43;78.93
75852;BME280;64500;52.632;20.656;2023-02-21T08:01:45;99193.88;;;6.43;78.96
75852;BME280;64500;52.632;20.656;2023-02-21T08:04:14;99203.52;;;6.43;79.03
75852;BME280;64500;52.632;20.656;2023-02-21T08:06:41;99202.45;;;6.44;78.97
75852;BME280;64500;52.632;20.656;2023-02-21T08:09:08;99208.25;;;6.44;78.92
75852;BME280;64500;52.632;20.656;2023-02-21T08:11:35;99206.31;;;6.45;78.94
75852;BME280;64500;52.632;20.656;2023-02-21T08:14:02;99204.88;;;6.46;78.98
75852;BME280;64500;52.632;20.656;2023-02-21T08:16:30;99209.80;;;6.46;79.03
75852;BME280;64500;52.632;20.656;2023-02-21T08:18:57;99214.34;;;6.47;79.04
75852;BME280;64500;52.632;20.656;2023-02-21T08:21:24;99215.36;;;6.48;79.12
75852;BME280;64500;52.632;20.656;2023-02-21T08:23:52;99223.23;;;6.49;79.16
75852;BME280;64500;52.632;20.656;2023-02-21T08:26:21;99230.39;;;6.50;79.14
75852;BME280;64500;52.632;20.656;2023-02-21T08:28:48;99231.59;;;6.52;79.19
75852;BME280;64500;52.632;20.656;2023-02-21T08:31:15;99234.21;;;6.52;79.23
75852;BME280;64500;52.632;20.656;2023-02-21T08:33:43;99240.00;;;6.52;79.24
75852;BME280;64500;52.632;20.656;2023-02-21T08:36:11;99239.31;;;6.52;79.23
75852;BME280;64500;52.632;20.656;2023-02-21T08:38:38;99245.09;;;6.52;79.22
75852;BME280;64500;52.632;20.656;2023-02-21T08:41:05;99245.10;;;6.52;79.08
75852;BME280;64500;52.632;20.656;2023-02-21T08:43:33;99246.65;;;6.53;79.17
75852;BME280;64500;52.632;20.656;2023-02-21T08:46:00;99257.00;;;6.53;79.17
75852;BME280;64500;52.632;20.656;2023-02-21T08:48:28;99253.30;;;6.53;79.19
75852;BME280;64500;52.632;20.656;2023-02-21T08:50:55;99262.59;;;6.55;79.14
75852;BME280;64500;52.632;20.656;2023-02-21T08:53:22;99266.96;;;6.55;79.06
75852;BME280;64500;52.632;20.656;2023-02-21T08:55:49;99273.29;;;6.55;79.06
75852;BME280;64500;52.632;20.656;2023-02-21T08:58:16;99270.11;;;6.55;79.00
75852;BME280;64500;52.632;20.656;2023-02-21T09:00:43;99270.98;;;6.55;79.15
75852;BME280;64500;52.632;20.656;2023-02-21T09:03:10;99276.94;;;6.56;79.17
75852;BME280;64500;52.632;20.656;2023-02-21T09:05:37;99272.52;;;6.57;79.13
75852;BME280;64500;52.632;20.656;2023-02-21T09:08:04;99275.29;;;6.58;79.16
75852;BME280;64500;52.632;20.656;2023-02-21T09:10:35;99277.73;;;6.60;79.18
75852;BME280;64500;52.632;20.656;2023-02-21T09:13:03;99277.01;;;6.60;79.25
75852;BME280;64500;52.632;20.656;2023-02-21T09:15:31;99281.55;;;6.62;79.14
75852;BME280;64500;52.632;20.656;2023-02-21T09:17:58;99281.69;;;6.62;79.05
75852;BME280;64500;52.632;20.656;2023-02-21T09:20:27;99284.66;;;6.63;79.18
75852;BME280;64500;52.632;20.656;2023-02-21T09:22:54;99289.71;;;6.64;79.23
75852;BME280;64500;52.632;20.656;2023-02-21T09:25:23;99295.48;;;6.66;79.22
75852;BME280;64500;52.632;20.656;2023-02-21T09:27:51;99300.70;;;6.68;79.28
75852;BME280;64500;52.632;20.656;2023-02-21T09:30:20;99308.55;;;6.69;79.24
75852;BME280;64500;52.632;20.656;2023-02-21T09:32:50;99311.69;;;6.70;79.12
75852;BME280;64500;52.632;20.656;2023-02-21T09:35:17;99318.15;;;6.72;79.20
75852;BME280;64500;52.632;20.656;2023-02-21T09:37:45;99326.02;;;6.73;79.28
75852;BME280;64500;52.632;20.656;2023-02-21T09:43:00;99325.80;;;6.75;79.24
75852;BME280;64500;52.632;20.656;2023-02-21T09:45:31;99325.77;;;6.76;79.08
75852;BME280;64500;52.632;20.656;2023-02-21T09:48:03;99334.87;;;6.77;79.21
75852;BME280;64500;52.632;20.656;2023-02-21T09:50:41;99340.65;;;6.78;79.27
75852;BME280;64500;52.632;20.656;2023-02-21T09:53:15;99335.02;;;6.78;79.28
75852;BME280;64500;52.632;20.656;2023-02-21T09:55:43;99342.21;;;6.78;79.16
75852;BME280;64500;52.632;20.656;2023-02-21T09:58:13;99351.86;;;6.79;78.98
75852;BME280;64500;52.632;20.656;2023-02-21T10:00:41;99357.13;;;6.79;79.09
75852;BME280;64500;52.632;20.656;2023-02-21T10:06:38;99357.63;;;6.80;79.12
75852;BME280;64500;52.632;20.656;2023-02-21T10:09:14;99364.48;;;6.80;79.09
75852;BME280;64500;52.632;20.656;2023-02-21T10:17:41;99367.48;;;6.80;79.02
75852;BME280;64500;52.632;20.656;2023-02-21T10:20:16;99374.79;;;6.82;79.05
75852;BME280;64500;52.632;20.656;2023-02-21T10:22:49;99374.43;;;6.82;79.17
75852;BME280;64500;52.632;20.656;2023-02-21T10:25:30;99375.81;;;6.83;79.06
75852;BME280;64500;52.632;20.656;2023-02-21T10:27:58;99380.35;;;6.84;79.20
75852;BME280;64500;52.632;20.656;2023-02-21T10:30:32;99382.27;;;6.85;79.21
75852;BME280;64500;52.632;20.656;2023-02-21T10:33:04;99388.05;;;6.86;79.12
75852;BME280;64500;52.632;20.656;2023-02-21T10:35:32;99393.47;;;6.86;79.04
75852;BME280;64500;52.632;20.656;2023-02-21T10:38:02;99393.80;;;6.87;79.09
75852;BME280;64500;52.632;20.656;2023-02-21T10:40:39;99403.09;;;6.88;79.10
75852;BME280;64500;52.632;20.656;2023-02-21T10:43:26;99404.30;;;6.89;79.06
75852;BME280;64500;52.632;20.656;2023-02-21T10:48:35;99409.02;;;6.91;79.15
75852;BME280;64500;52.632;20.656;2023-02-21T10:53:32;99410.05;;;6.91;79.01
75852;BME280;64500;52.632;20.656;2023-02-21T11:01:20;99411.20;;;6.94;79.17
75852;BME280;64500;52.632;20.656;2023-02-21T11:03:50;99413.97;;;6.96;79.19
75852;BME280;64500;52.632;20.656;2023-02-21T11:06:37;99421.65;;;6.98;79.19
75852;BME280;64500;52.632;20.656;2023-02-21T11:17:20;99432.98;;;7.01;79.26
75852;BME280;64500;52.632;20.656;2023-02-21T11:22:36;99434.36;;;7.02;79.24
75852;BME280;64500;52.632;20.656;2023-02-21T11:25:27;99436.44;;;7.04;79.06
75852;BME280;64500;52.632;20.656;2023-02-21T11:31:02;99452.64;;;7.02;79.13
75852;BME280;64500;52.632;20.656;2023-02-21T11:33:31;99458.09;;;7.02;79.05
75852;BME280;64500;52.632;20.656;2023-02-21T11:36:09;99466.39;;;7.01;79.02
75852;BME280;64500;52.632;20.656;2023-02-21T11:41:52;99472.91;;;7.00;79.07
75852;BME280;64500;52.632;20.656;2023-02-21T11:52:45;99471.55;;;6.98;79.09
75852;BME280;64500;52.632;20.656;2023-02-21T11:55:21;99470.29;;;6.99;79.03
75852;BME280;64500;52.632;20.656;2023-02-21T11:57:57;99477.48;;;6.99;79.22
75852;BME280;64500;52.632;20.656;2023-02-21T12:06:59;99490.96;;;7.02;79.09
75852;BME280;64500;52.632;20.656;2023-02-21T12:10:37;99494.29;;;7.02;79.22
75852;BME280;64500;52.632;20.656;2023-02-21T12:12:48;99490.92;;;7.03;79.26
75852;BME280;64500;52.632;20.656;2023-02-21T12:27:30;99489.13;;;7.05;79.37
75852;BME280;64500;52.632;20.656;2023-02-21T12:33:18;99495.80;;;7.04;79.05
75852;BME280;64500;52.632;20.656;2023-02-21T12:36:16;99499.34;;;7.04;79.20
75852;BME280;64500;52.632;20.656;2023-02-21T12:47:57;99510.90;;;6.98;78.71
75852;BME280;64500;52.632;20.656;2023-02-21T12:50:49;99507.54;;;6.99;78.90
75852;BME280;64500;52.632;20.656;2023-02-21T12:54:14;99503.70;;;6.98;78.62
75852;BME280;64500;52.632;20.656;2023-02-21T12:57:24;99501.32;;;6.79;78.03
75852;BME280;64500;52.632;20.656;2023-02-21T13:00:20;99505.23;;;6.69;78.16
75852;BME280;64500;52.632;20.656;2023-02-21T13:03:35;99507.35;;;6.61;78.19
75852;BME280;64500;52.632;20.656;2023-02-21T13:06:41;99511.60;;;6.51;78.02
75852;BME280;64500;52.632;20.656;2023-02-21T13:10:19;99517.36;;;6.45;78.05
75852;BME280;64500;52.632;20.656;2023-02-21T13:13:30;99528.19;;;6.38;78.04
75852;BME280;64500;52.632;20.656;2023-02-21T13:16:06;99534.10;;;6.32;77.95
75852;BME280;64500;52.632;20.656;2023-02-21T13:19:02;99540.68;;;6.37;78.62
75852;BME280;64500;52.632;20.656;2023-02-21T13:28:28;99550.19;;;6.62;78.64
75852;BME280;64500;52.632;20.656;2023-02-21T13:35:25;99552.45;;;6.71;78.57
75852;BME280;64500;52.632;20.656;2023-02-21T13:38:18;99556.40;;;6.74;78.51
75852;BME280;64500;52.632;20.656;2023-02-21T13:41:45;99562.15;;;6.76;78.57
75852;BME280;64500;52.632;20.656;2023-02-21T13:44:52;99561.40;;;6.78;78.52
75852;BME280;64500;52.632;20.656;2023-02-21T13:47:22;99563.50;;;6.79;78.60
75852;BME280;64500;52.632;20.656;2023-02-21T13:49:56;99564.15;;;6.82;78.57
75852;BME280;64500;52.632;20.656;2023-02-21T13:53:00;99573.39;;;6.85;78.59
75852;BME280;64500;52.632;20.656;2023-02-21T13:55:26;99567.35;;;6.87;78.54
75852;BME280;64500;52.632;20.656;2023-02-21T14:03:57;99595.40;;;6.91;78.40
75852;BME280;64500;52.632;20.656;2023-02-21T14:06:32;99591.45;;;6.94;78.57
75852;BME280;64500;52.632;20.656;2023-02-21T14:09:12;99600.98;;;7.00;79.04
75852;BME280;64500;52.632;20.656;2023-02-21T14:11:47;99598.84;;;7.09;79.20
75852;BME280;64500;52.632;20.656;2023-02-21T14:14:25;99593.21;;;7.17;79.31
75852;BME280;64500;52.632;20.656;2023-02-21T14:17:05;99600.27;;;7.24;79.60
75852;BME280;64500;52.632;20.656;2023-02-21T14:19:42;99604.02;;;7.30;79.46
75852;BME280;64500;52.632;20.656;2023-02-21T14:22:45;99609.30;;;7.37;79.69
75852;BME280;64500;52.632;20.656;2023-02-21T14:26:44;99619.36;;;7.43;79.83
75852;BME280;64500;52.632;20.656;2023-02-21T14:29:39;99614.27;;;7.49;79.56
75852;BME280;64500;52.632;20.656;2023-02-21T14:57:48;99639.46;;;7.69;79.43
75852;BME280;64500;52.632;20.656;2023-02-21T15:03:20;99644.48;;;7.65;79.38
75852;BME280;64500;52.632;20.656;2023-02-21T15:08:19;99645.98;;;7.61;79.14
75852;BME280;64500;52.632;20.656;2023-02-21T15:10:47;99647.93;;;7.61;79.14
75852;BME280;64500;52.632;20.656;2023-02-21T15:15:59;99655.02;;;7.59;79.15
75852;BME280;64500;52.632;20.656;2023-02-21T15:18:29;99656.98;;;7.57;78.93
75852;BME280;64500;52.632;20.656;2023-02-21T15:23:37;99664.77;;;7.55;78.77
75852;BME280;64500;52.632;20.656;2023-02-21T15:26:29;99660.42;;;7.53;78.97
75852;BME280;64500;52.632;20.656;2023-02-21T15:29:10;99675.40;;;7.52;78.63
75852;BME280;64500;52.632;20.656;2023-02-21T15:31:48;99670.85;;;7.51;78.69
75852;BME280;64500;52.632;20.656;2023-02-21T15:34:36;99672.30;;;7.49;78.84
75852;BME280;64500;52.632;20.656;2023-02-21T15:37:38;99675.48;;;7.48;78.73
75852;BME280;64500;52.632;20.656;2023-02-21T15:40:15;99680.11;;;7.46;78.95
75852;BME280;64500;52.632;20.656;2023-02-21T15:42:44;99682.77;;;7.45;78.88
75852;BME280;64500;52.632;20.656;2023-02-21T15:45:19;99694.25;;;7.43;78.83
75852;BME280;64500;52.632;20.656;2023-02-21T15:47:49;99695.32;;;7.42;78.79
75852;BME280;64500;52.632;20.656;2023-02-21T15:50:30;99705.34;;;7.42;78.92
75852;BME280;64500;52.632;20.656;2023-02-21T15:53:20;99696.77;;;7.41;78.80
75852;BME280;64500;52.632;20.656;2023-02-21T15:55:49;99695.40;;;7.39;78.90
75852;BME280;64500;52.632;20.656;2023-02-21T15:58:22;99707.89;;;7.38;78.68
75852;BME280;64500;52.632;20.656;2023-02-21T16:01:08;99710.03;;;7.37;78.73
75852;BME280;64500;52.632;20.656;2023-02-21T16:06:26;99725.04;;;7.34;78.76
75852;BME280;64500;52.632;20.656;2023-02-21T16:09:28;99729.45;;;7.32;78.59
75852;BME280;64500;52.632;20.656;2023-02-21T16:12:06;99729.13;;;7.31;78.53
75852;BME280;64500;52.632;20.656;2023-02-21T16:14:56;99735.84;;;7.30;78.72
75852;BME280;64500;52.632;20.656;2023-02-21T16:17:38;99736.55;;;7.29;78.41
75852;BME280;64500;52.632;20.656;2023-02-21T16:20:19;99741.69;;;7.28;78.50
75852;BME280;64500;52.632;20.656;2023-02-21T16:22:50;99743.64;;;7.27;78.67
75852;BME280;64500;52.632;20.656;2023-02-21T16:25:22;99751.40;;;7.26;78.77